createdAt,value
2018-02-06T00:00:17.016Z,1.53
2018-02-06T00:02:46.341Z,1.67
2018-02-06T00:05:15.122Z,1.64
2018-02-06T00:07:43.701Z,1.63
2018-02-06T00:10:12.670Z,1.61
2018-02-06T00:12:42.575Z,1.66
2018-02-06T00:15:11.370Z,1.67
2018-02-06T00:17:40.132Z,1.82
2018-02-06T00:20:09.068Z,1.77
2018-02-06T00:22:51.344Z,1.75
2018-02-06T00:25:19.827Z,1.66
2018-02-06T00:27:48.835Z,1.81
2018-02-06T00:30:18.869Z,1.70
2018-02-06T00:32:47.488Z,1.78
2018-02-06T00:35:16.107Z,1.63
2018-02-06T00:37:45.720Z,1.71
2018-02-06T00:40:14.307Z,1.58
2018-02-06T00:42:42.811Z,1.58
2018-02-06T00:45:12.310Z,1.63
2018-02-06T00:47:42.899Z,1.62
2018-02-06T00:50:11.421Z,1.66
2018-02-06T00:52:40.362Z,1.69
2018-02-06T00:55:08.984Z,1.60
2018-02-06T00:57:37.942Z,1.66
2018-02-06T01:00:06.368Z,1.77
2018-02-06T01:02:35.360Z,1.75
2018-02-06T01:05:04.721Z,1.73
2018-02-06T01:07:33.344Z,1.74
2018-02-06T01:10:03.200Z,1.60
2018-02-06T01:12:31.926Z,1.61
2018-02-06T01:15:00.647Z,1.67
2018-02-06T01:17:30.186Z,1.71
2018-02-06T01:19:59.074Z,1.71
2018-02-06T01:22:27.931Z,1.68
2018-02-06T01:24:56.759Z,1.75
2018-02-06T01:27:25.966Z,1.76
2018-02-06T01:29:55.908Z,1.75
2018-02-06T01:32:24.823Z,1.68
2018-02-06T01:34:54.848Z,1.72
2018-02-06T01:37:23.939Z,1.67
2018-02-06T01:39:52.648Z,1.69
2018-02-06T01:42:21.195Z,1.70
2018-02-06T01:44:49.978Z,1.67
2018-02-06T01:47:19.280Z,1.63
2018-02-06T01:50:05.369Z,1.68
2018-02-06T01:52:34.338Z,1.64
2018-02-06T01:55:03.976Z,1.66
2018-02-06T01:57:33.037Z,1.58
2018-02-06T02:00:01.607Z,1.68
2018-02-06T02:02:31.948Z,1.63
2018-02-06T02:05:01.152Z,1.52
2018-02-06T02:07:30.746Z,1.57
2018-02-06T02:10:00.219Z,1.51
2018-02-06T02:12:28.876Z,1.54
2018-02-06T02:14:58.238Z,1.53
2018-02-06T02:17:27.509Z,1.50
2018-02-06T02:19:55.972Z,1.42
2018-02-06T02:22:24.580Z,1.47
2018-02-06T02:24:53.889Z,1.51
2018-02-06T02:27:22.430Z,1.50
2018-02-06T02:29:50.859Z,1.51
2018-02-06T02:32:20.212Z,1.53
2018-02-06T02:34:48.862Z,1.47
2018-02-06T02:37:18.163Z,1.54
2018-02-06T02:39:46.587Z,1.44
2018-02-06T04:38:48.412Z,1.37
2018-02-06T04:41:16.897Z,1.49
2018-02-06T04:43:45.703Z,1.25
2018-02-06T04:46:14.187Z,1.31
2018-02-06T04:48:42.544Z,1.39
2018-02-06T04:51:11.044Z,1.26
2018-02-06T04:53:39.773Z,1.32
2018-02-06T04:56:08.228Z,1.36
2018-02-06T04:58:37.717Z,1.33
2018-02-06T05:01:08.068Z,1.32
2018-02-06T05:03:36.665Z,1.25
2018-02-06T05:06:05.973Z,1.26
2018-02-06T05:08:34.375Z,1.24
2018-02-06T05:11:03.906Z,1.27
2018-02-06T05:13:32.561Z,1.16
2018-02-06T05:16:01.131Z,1.18
2018-02-06T05:18:30.336Z,1.15
2018-02-06T05:20:59.794Z,1.16
2018-02-06T05:23:28.421Z,1.29
2018-02-06T05:25:57.728Z,1.35
2018-02-06T05:28:28.456Z,1.40
2018-02-06T05:30:57.160Z,1.15
2018-02-06T05:33:26.472Z,1.20
2018-02-06T05:35:55.286Z,1.31
2018-02-06T05:38:24.356Z,1.11
2018-02-06T05:40:54.104Z,1.21
2018-02-06T05:43:23.558Z,1.24
2018-02-06T05:45:52.459Z,1.17
2018-02-06T05:48:22.168Z,1.12
2018-02-06T05:50:51.511Z,1.05
2018-02-06T05:53:20.046Z,1.15
2018-02-06T05:55:49.397Z,1.26
2018-02-06T05:58:18.878Z,1.20
2018-02-06T06:00:49.811Z,1.26
2018-02-06T06:03:19.867Z,1.23
2018-02-06T06:05:49.055Z,1.15
2018-02-06T06:08:18.357Z,1.12
2018-02-06T06:10:47.083Z,1.11
2018-02-06T06:13:16.675Z,1.16
2018-02-06T06:15:45.859Z,1.18
2018-02-06T06:18:14.868Z,1.07
2018-02-06T06:20:45.224Z,1.11
2018-02-06T06:23:14.560Z,1.11
2018-02-06T06:25:44.094Z,0.89
2018-02-06T06:28:12.907Z,0.83
2018-02-06T06:30:41.355Z,0.98
2018-02-06T06:33:09.891Z,1.12
2018-02-06T06:35:39.040Z,1.13
2018-02-06T06:38:07.486Z,1.18
2018-02-06T06:40:36.747Z,1.17
2018-02-06T06:43:05.196Z,1.13
2018-02-06T06:45:33.668Z,1.09
2018-02-06T06:48:02.282Z,1.03
2018-02-06T06:50:31.610Z,1.16
2018-02-06T06:53:00.761Z,1.14
2018-02-06T06:55:29.106Z,1.11
2018-02-06T06:57:57.521Z,1.11
2018-02-06T07:00:25.881Z,1.25
2018-02-06T07:02:54.223Z,1.19
2018-02-06T07:05:23.356Z,1.22
2018-02-06T07:07:51.645Z,1.25
2018-02-06T07:10:20.005Z,1.40
2018-02-06T07:12:48.298Z,1.29
2018-02-06T07:15:16.607Z,1.21
2018-02-06T07:17:46.479Z,1.18
2018-02-06T07:20:14.871Z,1.33
2018-02-06T07:22:43.243Z,1.37
2018-02-06T07:25:11.588Z,1.39
2018-02-06T07:27:40.030Z,1.43
2018-02-06T07:30:08.374Z,1.38
2018-02-06T07:32:37.568Z,1.33
2018-02-06T07:35:05.967Z,1.40
2018-02-06T07:37:34.695Z,1.36
2018-02-06T07:40:03.231Z,1.11
2018-02-06T07:42:31.755Z,1.28
2018-02-06T07:45:00.104Z,1.42
2018-02-06T07:47:30.246Z,1.31
2018-02-06T07:49:58.604Z,1.17
2018-02-06T07:52:26.930Z,1.35
2018-02-06T07:54:55.269Z,1.30
2018-02-06T07:57:24.396Z,1.46
2018-02-06T07:59:52.802Z,1.43
2018-02-06T08:02:21.331Z,1.41
2018-02-06T08:04:50.851Z,1.48
2018-02-06T08:07:19.418Z,1.52
2018-02-06T08:09:47.754Z,1.47
2018-02-06T08:12:17.718Z,1.35
2018-02-06T08:14:46.040Z,1.44
2018-02-06T08:17:14.396Z,1.39
2018-02-06T08:19:42.712Z,1.37
2018-02-06T08:22:11.806Z,1.37
2018-02-06T08:24:40.973Z,1.49
2018-02-06T08:27:10.440Z,1.31
2018-02-06T08:29:38.838Z,1.41
2018-02-06T08:32:07.220Z,1.50
2018-02-06T08:34:36.786Z,1.65
2018-02-06T08:37:05.102Z,1.67
2018-02-06T08:39:33.710Z,1.67
2018-02-06T08:42:02.306Z,1.80
2018-02-06T08:44:30.663Z,1.82
2018-02-06T08:46:59.028Z,2.04
2018-02-06T08:52:02.187Z,2.06
2018-02-06T08:54:30.529Z,2.05
2018-02-06T08:57:00.375Z,2.03
2018-02-06T08:59:28.720Z,2.08
2018-02-06T09:01:57.128Z,1.97
2018-02-06T09:04:25.635Z,1.90
2018-02-06T09:06:53.975Z,1.96
2018-02-06T09:09:23.185Z,1.92
2018-02-06T09:11:52.246Z,2.10
2018-02-06T09:14:20.577Z,2.13
2018-02-06T09:16:48.913Z,2.12
2018-02-06T09:19:17.394Z,1.97
2018-02-06T09:21:46.658Z,2.26
2018-02-06T09:24:15.023Z,2.01
2018-02-06T09:26:44.577Z,2.11
2018-02-06T09:29:12.916Z,2.02
2018-02-06T09:31:41.297Z,1.93
2018-02-06T09:34:09.752Z,2.00
2018-02-06T09:36:38.088Z,2.05
2018-02-06T09:39:07.178Z,2.04
2018-02-06T09:41:36.278Z,2.09
2018-02-06T09:44:05.374Z,2.14
2018-02-06T09:46:33.834Z,2.16
2018-02-06T09:49:03.769Z,2.26
2018-02-06T09:51:32.102Z,2.25
2018-02-06T09:54:00.462Z,2.31
2018-02-06T09:56:28.758Z,2.39
2018-02-06T09:58:57.127Z,2.50
2018-02-06T10:01:26.044Z,2.51
2018-02-06T10:03:54.361Z,2.52
2018-02-06T10:06:22.683Z,2.69
2018-02-06T10:08:51.771Z,2.83
2018-02-06T10:11:20.590Z,2.74
2018-02-06T10:13:49.765Z,2.71
2018-02-06T10:16:18.110Z,3.03
2018-02-06T10:18:46.426Z,3.33
2018-02-06T10:21:14.777Z,3.33
2018-02-06T10:23:43.095Z,3.35
2018-02-06T10:26:12.186Z,3.43
2018-02-06T10:28:41.371Z,3.78
2018-02-06T10:31:09.705Z,4.04
2018-02-06T10:33:38.050Z,3.95
2018-02-06T10:36:07.215Z,4.20
2018-02-06T10:38:35.834Z,4.27
2018-02-06T10:41:04.131Z,4.55
2018-02-06T10:43:32.696Z,4.45
2018-02-06T10:46:01.002Z,4.23
2018-02-06T10:48:29.444Z,4.39
2018-02-06T10:50:58.641Z,4.27
2018-02-06T10:53:26.947Z,4.01
2018-02-06T10:55:55.255Z,3.93
2018-02-06T10:58:23.551Z,3.76
2018-02-06T11:00:52.628Z,3.87
2018-02-06T11:03:20.938Z,3.69
2018-02-06T11:05:49.406Z,3.66
2018-02-06T11:08:17.777Z,3.74
2018-02-06T11:10:46.847Z,3.42
2018-02-06T11:13:15.290Z,3.48
2018-02-06T11:15:43.764Z,3.36
2018-02-06T11:18:12.260Z,3.30
2018-02-06T11:20:40.619Z,3.32
2018-02-06T11:23:09.565Z,3.34
2018-02-06T11:25:37.892Z,3.39
2018-02-06T11:28:06.186Z,3.45
2018-02-06T11:30:34.558Z,3.53
2018-02-06T11:33:02.923Z,3.67
2018-02-06T11:35:31.254Z,3.40
2018-02-06T11:38:00.355Z,3.56
2018-02-06T11:40:29.478Z,3.56
2018-02-06T11:42:58.798Z,3.76
2018-02-06T11:45:27.119Z,3.64
2018-02-06T11:47:56.200Z,3.57
2018-02-06T11:50:24.642Z,3.57
2018-02-06T11:52:53.036Z,3.94
2018-02-06T11:55:21.619Z,3.69
2018-02-06T11:57:49.941Z,3.62
2018-02-06T12:00:19.037Z,3.45
2018-02-06T12:02:47.389Z,3.81
2018-02-06T12:05:15.720Z,3.46
2018-02-06T12:07:44.264Z,3.68
2018-02-06T12:10:13.613Z,3.99
2018-02-06T12:12:42.020Z,4.26
2018-02-06T12:15:10.532Z,4.48
2018-02-06T12:17:38.889Z,5.23
2018-02-06T12:20:07.972Z,6.30
2018-02-06T12:22:37.339Z,6.46
2018-02-06T12:25:06.491Z,6.90
2018-02-06T12:27:36.150Z,7.19
2018-02-06T12:30:04.868Z,7.61
2018-02-06T12:32:33.979Z,6.53
2018-02-06T12:35:03.082Z,5.73
2018-02-06T12:37:31.427Z,5.63
2018-02-06T12:39:59.798Z,5.28
2018-02-06T12:42:28.492Z,5.24
2018-02-06T12:44:57.209Z,5.63
2018-02-06T12:47:25.818Z,6.14
2018-02-06T12:49:54.245Z,6.23
2018-02-06T12:52:23.353Z,6.17
2018-02-06T12:54:51.778Z,6.26
2018-02-06T12:57:21.033Z,6.47
2018-02-06T12:59:49.427Z,6.27
2018-02-06T13:02:17.792Z,6.16
2018-02-06T13:04:46.315Z,6.18
2018-02-06T13:07:15.477Z,6.20
2018-02-06T13:09:43.999Z,5.91
2018-02-06T13:12:12.473Z,6.19
2018-02-06T13:14:41.059Z,5.96
2018-02-06T13:17:09.422Z,6.31
2018-02-06T13:19:37.738Z,6.28
2018-02-06T13:22:06.369Z,5.99
2018-02-06T13:24:34.819Z,6.73
2018-02-06T13:27:04.131Z,6.72
2018-02-06T13:29:33.545Z,6.86
2018-02-06T13:32:03.028Z,7.30
2018-02-06T13:34:31.531Z,6.97
2018-02-06T13:36:59.881Z,7.19
2018-02-06T13:39:28.493Z,7.06
2018-02-06T13:41:57.801Z,6.76
2018-02-06T13:44:27.121Z,6.73
2018-02-06T13:46:56.654Z,6.38
2018-02-06T13:49:25.067Z,6.60
2018-02-06T13:51:54.423Z,7.34
